Time;durP1;ratioP1;P1;durP2;ratioP2;P2;SDS_P1;SDS_P2;PMS_P1;PMS_P2;Temp;Humidity;BMP_temperature;BMP_pressure;BME280_temperature;BME280_humidity;BME280_pressure;Samples;Min_cycle;Max_cycle;Signal;HPM_P1;HPM_P2
2022/11/27 00:01:08;;;;;;;51.27;13.30;;;7.80;63.90;;;;;;5030337;28;20428;-49
2022/11/27 00:03:34;;;;;;;47.53;14.87;;;7.90;64.40;;;;;;5023574;28;20615;-51
2022/11/27 00:05:59;;;;;;;41.50;20.50;;;7.70;64.50;;;;;;5028088;28;20514;-49
2022/11/27 00:08:25;;;;;;;30.73;16.40;;;7.80;66.00;;;;;;5026947;28;20201;-49
2022/11/27 00:10:51;;;;;;;66.70;14.77;;;7.90;65.40;;;;;;5032015;28;20275;-50
2022/11/27 00:13:16;;;;;;;25.67;11.80;;;7.80;64.30;;;;;;5025345;28;20212;-49
2022/11/27 00:15:42;;;;;;;23.70;10.00;;;7.40;64.70;;;;;;5017446;28;20193;-50
2022/11/27 00:18:08;;;;;;;34.33;11.07;;;7.20;66.60;;;;;;5022084;28;20202;-49
2022/11/27 00:20:33;;;;;;;29.63;10.87;;;6.90;67.10;;;;;;5021663;28;20276;-49
2022/11/27 00:22:59;;;;;;;11.10;9.70;;;7.00;68.20;;;;;;5025719;28;20436;-49
2022/11/27 00:25:25;;;;;;;50.90;11.67;;;7.00;68.30;;;;;;5024292;28;20681;-50
2022/11/27 00:27:50;;;;;;;20.13;10.17;;;7.10;67.70;;;;;;5029172;28;20193;-49
2022/11/27 00:30:16;;;;;;;35.93;10.30;;;7.20;67.60;;;;;;5027856;28;20201;-52
2022/11/27 00:32:42;;;;;;;46.77;11.30;;;7.30;66.80;;;;;;5026709;28;20216;-50
2022/11/27 00:35:08;;;;;;;16.43;9.50;;;7.30;66.10;;;;;;5023510;28;20533;-50
2022/11/27 00:37:33;;;;;;;20.30;10.00;;;7.20;66.80;;;;;;5025207;28;20918;-50
2022/11/27 00:39:59;;;;;;;15.90;10.07;;;7.10;66.60;;;;;;5028110;28;20518;-49
2022/11/27 00:42:24;;;;;;;22.03;9.27;;;7.10;67.10;;;;;;5019555;28;20194;-49
2022/11/27 00:44:50;;;;;;;12.53;10.20;;;7.20;66.40;;;;;;5022770;28;20225;-51
2022/11/27 00:47:16;;;;;;;52.43;11.77;;;7.50;66.30;;;;;;5027527;28;20194;-49
2022/11/27 00:49:41;;;;;;;26.23;10.20;;;7.60;65.40;;;;;;5028332;28;20189;-49
2022/11/27 00:52:07;;;;;;;19.73;9.70;;;7.10;64.50;;;;;;5025261;28;20216;-50
2022/11/27 00:54:33;;;;;;;16.50;8.27;;;7.10;66.40;;;;;;5026335;28;20279;-50
2022/11/27 00:56:58;;;;;;;11.73;9.53;;;7.30;66.10;;;;;;5030027;28;20192;-50
2022/11/27 00:59:24;;;;;;;12.47;10.37;;;7.30;65.40;;;;;;5025516;28;20193;-50
2022/11/27 01:01:50;;;;;;;28.10;9.90;;;7.60;65.30;;;;;;5025207;28;20712;-49
2022/11/27 01:04:16;;;;;;;11.50;9.30;;;7.70;64.70;;;;;;5027483;28;20547;-50
2022/11/27 01:06:42;;;;;;;17.93;10.60;;;7.80;64.40;;;;;;5023849;28;20695;-50
2022/11/27 01:09:12;;;;;;;10.63;9.27;;;7.90;63.90;;;;;;5021175;28;20225;-50
2022/11/27 01:11:38;;;;;;;35.13;10.03;;;7.90;63.20;;;;;;5027689;28;20453;-50
2022/11/27 01:14:06;;;;;;;13.17;9.83;;;7.90;62.90;;;;;;5020075;28;20448;-49
2022/11/27 01:16:33;;;;;;;14.93;11.10;;;7.90;62.90;;;;;;5023227;28;20455;-50
2022/11/27 01:19:00;;;;;;;17.93;11.57;;;8.00;63.00;;;;;;5026610;28;20432;-49
2022/11/27 01:21:28;;;;;;;28.93;11.33;;;7.80;61.80;;;;;;5027835;28;20450;-50
2022/11/27 01:23:54;;;;;;;17.97;9.80;;;7.60;62.70;;;;;;5028705;28;20448;-49
2022/11/27 01:26:20;;;;;;;12.07;9.77;;;7.40;62.90;;;;;;5027098;28;20513;-49
2022/11/27 01:28:46;;;;;;;12.60;10.50;;;7.40;63.30;;;;;;5022180;28;20522;-49
2022/11/27 01:31:15;;;;;;;17.30;11.00;;;7.50;63.40;;;;;;5024510;28;20600;-50
2022/11/27 01:33:41;;;;;;;11.90;10.30;;;7.60;63.30;;;;;;5026371;28;20224;-49
2022/11/27 01:36:08;;;;;;;10.67;9.43;;;7.70;62.90;;;;;;5018942;28;20436;-54
2022/11/27 01:38:34;;;;;;;18.70;10.50;;;7.80;62.70;;;;;;5025612;28;21020;-49
2022/11/27 01:41:07;;;;;;;10.27;9.23;;;7.90;62.30;;;;;;5023195;28;21007;-50
2022/11/27 01:43:38;;;;;;;11.20;9.47;;;7.90;62.10;;;;;;5020681;28;20442;-51
2022/11/27 01:46:25;;;;;;;14.83;9.70;;;7.90;62.00;;;;;;5022609;28;20490;-50
2022/11/27 01:48:59;;;;;;;10.30;9.17;;;7.80;60.90;;;;;;4970801;28;20806;-49
2022/11/27 01:51:25;;;;;;;10.43;8.27;;;7.80;61.40;;;;;;5010254;28;20930;-50
2022/11/27 01:53:52;;;;;;;9.37;8.47;;;7.80;61.40;;;;;;5027240;28;20594;-51
2022/11/27 01:56:19;;;;;;;9.60;8.00;;;7.50;61.70;;;;;;5032021;28;20193;-49
2022/11/27 01:58:45;;;;;;;18.90;8.60;;;7.50;62.20;;;;;;5031273;28;20536;-50
2022/11/27 02:01:11;;;;;;;11.27;8.50;;;7.60;62.20;;;;;;5029680;28;20456;-49
2022/11/27 02:03:36;;;;;;;16.53;9.23;;;7.70;62.10;;;;;;5026440;28;20513;-50
2022/11/27 02:06:02;;;;;;;11.20;8.40;;;7.70;61.30;;;;;;5023576;28;20231;-51
2022/11/27 02:08:27;;;;;;;11.30;8.53;;;7.50;61.20;;;;;;5028089;28;20197;-49
2022/11/27 02:11:05;;;;;;;11.03;8.53;;;7.50;61.70;;;;;;5028731;28;20549;-51
2022/11/27 02:13:59;;;;;;;12.03;8.27;;;7.70;61.90;;;;;;5030739;28;21545;-50
2022/11/27 02:17:14;;;;;;;13.43;8.90;;;7.70;61.70;;;;;;5031078;28;20589;-53
2022/11/27 02:19:49;;;;;;;10.53;9.43;;;7.70;61.70;;;;;;5007083;28;20461;-50
2022/11/27 02:22:35;;;;;;;15.17;8.30;;;7.80;61.50;;;;;;5024852;28;20471;-49
2022/11/27 02:25:19;;;;;;;18.43;9.37;;;7.80;61.40;;;;;;5030031;28;20498;-50
2022/11/27 02:28:16;;;;;;;18.73;9.70;;;7.50;61.00;;;;;;5023338;28;20458;-49
2022/11/27 02:30:48;;;;;;;11.20;9.00;;;7.40;62.30;;;;;;4986687;28;20555;-54
2022/11/27 02:33:18;;;;;;;15.90;9.00;;;7.50;62.50;;;;;;5024132;28;20522;-53
2022/11/27 02:35:54;;;;;;;33.23;10.03;;;7.50;62.40;;;;;;5037324;28;20434;-49
2022/11/27 02:38:40;;;;;;;13.57;9.17;;;7.50;61.90;;;;;;5033126;28;20440;-53
2022/11/27 02:41:13;;;;;;;13.87;8.97;;;7.40;61.80;;;;;;5032416;28;20454;-50
2022/11/27 02:43:43;;;;;;;32.13;8.30;;;7.40;62.70;;;;;;5020832;28;20863;-49
2022/11/27 02:46:11;;;;;;;10.77;8.07;;;7.50;62.60;;;;;;5032512;28;20503;-50
2022/11/27 02:48:42;;;;;;;20.60;7.97;;;7.50;62.20;;;;;;5041118;28;20581;-52
2022/11/27 02:51:10;;;;;;;17.20;9.50;;;7.50;62.10;;;;;;5026843;28;20444;-50
2022/11/27 02:53:46;;;;;;;26.50;8.80;;;7.40;62.30;;;;;;5028451;28;20577;-50
2022/11/27 02:56:17;;;;;;;37.57;10.03;;;7.40;62.30;;;;;;5025666;28;20447;-51
2022/11/27 02:58:45;;;;;;;16.53;8.73;;;7.40;62.10;;;;;;5023421;28;20448;-51
2022/11/27 03:01:13;;;;;;;19.50;9.10;;;7.40;62.10;;;;;;5026307;28;20443;-51
2022/11/27 03:03:46;;;;;;;38.10;9.37;;;7.20;62.40;;;;;;5029916;28;20444;-52
2022/11/27 03:06:18;;;;;;;90.03;11.03;;;7.10;62.90;;;;;;5027698;28;20498;-50
2022/11/27 03:08:56;;;;;;;42.03;8.30;;;7.10;62.70;;;;;;5032082;28;20953;-51
2022/11/27 03:11:22;;;;;;;36.70;9.90;;;7.10;62.70;;;;;;5024430;28;20444;-52
2022/11/27 03:13:52;;;;;;;13.07;8.70;;;6.70;62.80;;;;;;5030676;28;20962;-50
2022/11/27 03:17:08;;;;;;;23.70;8.97;;;6.50;64.30;;;;;;5031192;28;20546;-50
2022/11/27 03:19:46;;;;;;;9.53;8.57;;;6.70;64.50;;;;;;4987498;28;21061;-51
2022/11/27 03:22:12;;;;;;;13.93;8.27;;;6.90;64.30;;;;;;5026877;28;20792;-52
2022/11/27 03:24:38;;;;;;;35.03;9.30;;;7.00;64.00;;;;;;5029334;28;20486;-51
2022/11/27 03:27:04;;;;;;;14.03;7.53;;;7.10;63.60;;;;;;5026485;28;20432;-54
2022/11/27 03:29:47;;;;;;;16.00;7.73;;;7.20;63.30;;;;;;5028132;28;20190;-50
2022/11/27 03:32:13;;;;;;;32.33;10.77;;;7.20;63.00;;;;;;5027355;28;20447;-51
2022/11/27 03:34:39;;;;;;;23.70;8.47;;;7.00;62.70;;;;;;5028032;28;20440;-50
2022/11/27 03:37:05;;;;;;;49.97;9.53;;;6.90;63.10;;;;;;5027559;28;20471;-50
2022/11/27 03:39:31;;;;;;;14.20;8.17;;;6.90;63.30;;;;;;5021975;28;20495;-51
2022/11/27 03:42:00;;;;;;;44.23;8.20;;;6.70;63.80;;;;;;5026531;28;20198;-50
2022/11/27 03:44:37;;;;;;;38.90;9.17;;;6.70;63.80;;;;;;5022673;28;20481;-51
2022/11/27 03:47:02;;;;;;;18.57;7.87;;;6.50;63.90;;;;;;5027917;28;20502;-52
2022/11/27 03:49:37;;;;;;;52.30;10.70;;;6.40;64.40;;;;;;5025394;28;20444;-50
2022/11/27 03:52:26;;;;;;;14.20;7.90;;;6.30;64.10;;;;;;5028145;28;20251;-50
2022/11/27 03:55:03;;;;;;;31.27;8.60;;;6.40;64.60;;;;;;5024881;28;20578;-54
2022/11/27 03:57:39;;;;;;;39.63;7.90;;;6.50;64.10;;;;;;5024714;28;20443;-50
2022/11/27 04:00:07;;;;;;;58.70;9.47;;;6.30;64.10;;;;;;5027323;28;20995;-53
2022/11/27 04:02:45;;;;;;;29.17;8.50;;;6.40;64.90;;;;;;5028247;28;20514;-50
2022/11/27 04:05:12;;;;;;;18.43;8.23;;;6.50;64.50;;;;;;5026679;28;20491;-50
2022/11/27 04:07:38;;;;;;;42.57;9.20;;;6.60;65.10;;;;;;5020924;28;20650;-50
2022/11/27 04:10:05;;;;;;;58.63;10.30;;;6.50;63.70;;;;;;5029110;28;20816;-50
2022/11/27 04:12:30;;;;;;;134.20;11.33;;;6.40;63.80;;;;;;5024823;28;20533;-50
2022/11/27 04:14:56;;;;;;;26.40;8.20;;;6.10;64.10;;;;;;5025243;28;20464;-50
2022/11/27 04:17:22;;;;;;;47.47;9.20;;;5.80;66.10;;;;;;5029421;28;20204;-50
2022/11/27 04:19:48;;;;;;;9.97;7.63;;;6.00;66.60;;;;;;5027868;28;20204;-50
2022/11/27 04:22:13;;;;;;;20.93;8.87;;;6.10;66.00;;;;;;5025246;28;20798;-53
2022/11/27 04:24:39;;;;;;;11.13;6.77;;;6.30;65.80;;;;;;5021684;28;21815;-51
2022/11/27 04:27:04;;;;;;;8.63;7.70;;;6.40;65.50;;;;;;5024841;28;20557;-51
2022/11/27 04:29:30;;;;;;;15.47;8.90;;;6.50;65.00;;;;;;5022602;28;20193;-50
2022/11/27 04:31:55;;;;;;;21.90;8.23;;;6.60;64.80;;;;;;5027699;28;20200;-51
2022/11/27 04:34:21;;;;;;;17.07;8.07;;;6.80;64.50;;;;;;5025317;28;20201;-51
2022/11/27 04:36:47;;;;;;;11.87;7.17;;;6.90;64.20;;;;;;5022246;28;20217;-50
2022/11/27 04:39:12;;;;;;;20.20;7.47;;;6.90;63.50;;;;;;5023191;28;20212;-50
2022/11/27 04:41:38;;;;;;;51.60;10.30;;;6.90;63.00;;;;;;5027842;28;20196;-52
2022/11/27 04:44:04;;;;;;;25.90;8.07;;;6.70;62.70;;;;;;5025078;28;20200;-50
2022/11/27 04:46:30;;;;;;;58.40;10.50;;;6.40;63.30;;;;;;5018727;28;20205;-49
2022/11/27 04:48:56;;;;;;;12.93;6.97;;;6.50;64.00;;;;;;5023819;28;20452;-50
2022/11/27 04:51:22;;;;;;;21.00;8.13;;;6.60;63.90;;;;;;5024417;28;20436;-51
2022/11/27 04:53:47;;;;;;;12.80;6.60;;;6.70;63.60;;;;;;5020772;28;20769;-51
2022/11/27 04:56:13;;;;;;;40.73;8.70;;;6.40;62.90;;;;;;5023799;28;20707;-51
2022/11/27 04:58:39;;;;;;;128.03;12.70;;;5.90;65.00;;;;;;5020189;28;20213;-50
2022/11/27 05:01:06;;;;;;;178.70;13.93;;;6.00;66.20;;;;;;5024034;28;20189;-51
2022/11/27 05:03:32;;;;;;;26.03;9.50;;;5.80;66.10;;;;;;5029111;28;20209;-53
2022/11/27 05:05:57;;;;;;;33.67;8.90;;;5.90;66.40;;;;;;5022531;28;20851;-50
2022/11/27 05:08:24;;;;;;;10.23;7.53;;;6.20;66.00;;;;;;5020458;28;20263;-51
2022/11/27 05:11:01;;;;;;;62.07;9.20;;;6.20;65.90;;;;;;5020137;28;20200;-53
2022/11/27 05:13:26;;;;;;;36.07;8.40;;;6.30;65.20;;;;;;5023233;28;20542;-51
2022/11/27 05:15:52;;;;;;;37.20;8.73;;;6.10;64.80;;;;;;5025742;28;20871;-53
2022/11/27 05:18:17;;;;;;;42.93;8.67;;;6.00;65.40;;;;;;5020557;28;20197;-51
2022/11/27 05:20:43;;;;;;;24.23;8.30;;;5.80;65.60;;;;;;5021106;28;20246;-50
2022/11/27 05:23:09;;;;;;;68.83;9.33;;;5.70;66.60;;;;;;5021871;28;20204;-50
2022/11/27 05:25:34;;;;;;;74.50;9.50;;;5.50;66.50;;;;;;5019694;28;20220;-50
2022/11/27 05:28:00;;;;;;;23.53;9.23;;;5.30;67.20;;;;;;5029587;28;20203;-50
2022/11/27 05:30:25;;;;;;;27.63;8.80;;;5.10;68.60;;;;;;5020951;28;20205;-52
2022/11/27 05:32:51;;;;;;;14.33;8.60;;;5.30;69.10;;;;;;5030233;28;20292;-51
2022/11/27 05:35:16;;;;;;;23.97;8.00;;;5.60;68.30;;;;;;5031634;28;20565;-50
2022/11/27 05:37:42;;;;;;;15.37;7.90;;;5.70;67.30;;;;;;5034060;28;20218;-50
2022/11/27 05:40:08;;;;;;;27.23;8.73;;;5.70;67.30;;;;;;5027268;28;20193;-50
2022/11/27 05:42:33;;;;;;;32.50;8.10;;;5.70;66.80;;;;;;5030661;28;20205;-50
2022/11/27 05:44:59;;;;;;;21.73;7.53;;;5.70;67.30;;;;;;5032063;28;20271;-50
2022/11/27 05:47:24;;;;;;;34.03;8.73;;;5.70;66.80;;;;;;5026456;28;20713;-49
2022/11/27 05:49:50;;;;;;;19.90;9.33;;;5.90;66.70;;;;;;5024431;28;20263;-49
2022/11/27 05:52:16;;;;;;;14.30;9.87;;;6.10;66.20;;;;;;5027583;28;20204;-50
2022/11/27 05:54:41;;;;;;;39.07;9.93;;;6.30;65.80;;;;;;5027414;28;20239;-49
2022/11/27 05:57:07;;;;;;;33.83;9.33;;;6.40;65.10;;;;;;5027868;28;20669;-50
2022/11/27 05:59:32;;;;;;;39.97;8.70;;;6.50;64.70;;;;;;5026901;28;20703;-50
2022/11/27 06:01:58;;;;;;;41.97;14.43;;;6.50;64.40;;;;;;5023839;28;20189;-49
2022/11/27 06:04:23;;;;;;;24.63;7.57;;;6.60;64.50;;;;;;5022657;28;20753;-49
2022/11/27 06:06:49;;;;;;;20.73;10.40;;;6.60;64.50;;;;;;5029583;28;20189;-49
2022/11/27 06:09:15;;;;;;;14.97;9.60;;;6.70;64.50;;;;;;5035864;28;20205;-52
2022/11/27 06:11:41;;;;;;;25.83;12.00;;;6.70;64.10;;;;;;5031022;28;20675;-53
2022/11/27 06:14:08;;;;;;;36.80;8.60;;;6.80;64.00;;;;;;5031472;28;20258;-50
2022/11/27 06:16:34;;;;;;;37.60;8.70;;;6.80;63.70;;;;;;5027507;28;21013;-50
2022/11/27 06:18:59;;;;;;;16.63;7.50;;;6.80;63.30;;;;;;5030794;28;20435;-49
2022/11/27 06:21:25;;;;;;;37.17;8.20;;;6.80;63.50;;;;;;5030895;28;20897;-50
2022/11/27 06:23:55;;;;;;;68.00;9.80;;;6.80;63.40;;;;;;5027075;28;20189;-49
2022/11/27 06:26:26;;;;;;;18.60;7.03;;;6.80;63.50;;;;;;5032011;28;20678;-49
2022/11/27 06:28:53;;;;;;;10.33;7.00;;;6.80;63.30;;;;;;5030448;28;20522;-50
2022/11/27 06:31:22;;;;;;;23.53;7.70;;;7.00;65.20;;;;;;5012184;28;20458;-49
2022/11/27 06:33:49;;;;;;;16.30;6.87;;;7.40;67.20;;;;;;5012079;28;20669;-52
2022/11/27 06:36:16;;;;;;;8.97;6.60;;;7.70;66.60;;;;;;5029813;28;21066;-50
2022/11/27 06:38:42;;;;;;;24.60;7.30;;;8.10;66.50;;;;;;5030616;28;20440;-51
2022/11/27 06:41:10;;;;;;;27.33;10.47;;;8.40;66.50;;;;;;5029615;28;20447;-50
2022/11/27 06:43:36;;;;;;;18.10;8.77;;;8.60;64.80;;;;;;5027298;28;20780;-53
2022/11/27 06:46:03;;;;;;;16.53;7.33;;;8.80;63.50;;;;;;5024188;28;20502;-49
2022/11/27 06:48:29;;;;;;;18.90;9.50;;;8.90;62.10;;;;;;5031162;28;20440;-50
2022/11/27 06:50:59;;;;;;;12.43;7.70;;;9.00;60.70;;;;;;5025838;28;20531;-52
2022/11/27 06:53:25;;;;;;;8.00;7.13;;;9.10;60.50;;;;;;5028457;28;20502;-50
2022/11/27 06:55:50;;;;;;;19.77;8.03;;;9.20;60.30;;;;;;5022863;28;20931;-51
2022/11/27 06:58:16;;;;;;;14.40;10.60;;;9.30;59.20;;;;;;5034492;28;20189;-51
2022/11/27 07:00:41;;;;;;;32.70;17.17;;;9.30;57.90;;;;;;5030492;28;20664;-53
2022/11/27 07:03:07;;;;;;;24.83;12.77;;;9.40;57.70;;;;;;5033749;28;20563;-50
2022/11/27 07:05:34;;;;;;;19.97;8.80;;;9.40;57.90;;;;;;5032026;28;20938;-50
2022/11/27 07:07:59;;;;;;;9.27;7.73;;;9.40;56.90;;;;;;5039672;28;20189;-51
2022/11/27 07:10:25;;;;;;;10.73;7.50;;;9.40;56.20;;;;;;5031329;28;21584;-51
2022/11/27 07:12:50;;;;;;;10.23;8.10;;;9.40;56.10;;;;;;5024973;28;20189;-50
2022/11/27 07:15:16;;;;;;;9.17;7.27;;;9.30;56.70;;;;;;5030218;28;20200;-51
2022/11/27 07:17:42;;;;;;;24.13;7.50;;;9.20;55.80;;;;;;5031425;28;20200;-50
2022/11/27 07:20:08;;;;;;;13.23;7.17;;;9.30;55.80;;;;;;5031035;28;20225;-51
2022/11/27 07:22:33;;;;;;;10.70;7.17;;;9.30;55.00;;;;;;5028658;28;20669;-50
2022/11/27 07:24:59;;;;;;;32.20;9.23;;;9.30;55.00;;;;;;5025483;28;20229;-50
2022/11/27 07:27:25;;;;;;;15.90;8.10;;;9.30;55.10;;;;;;5031656;28;20199;-50
2022/11/27 07:29:51;;;;;;;23.43;7.30;;;9.40;54.90;;;;;;5029048;28;20205;-50
2022/11/27 07:32:16;;;;;;;21.37;7.97;;;9.40;54.80;;;;;;5021330;28;20538;-50
2022/11/27 07:34:42;;;;;;;24.03;8.33;;;9.30;54.20;;;;;;5029929;28;20213;-52
2022/11/27 07:37:08;;;;;;;20.33;12.70;;;9.20;54.00;;;;;;5032039;28;20193;-54
2022/11/27 07:39:33;;;;;;;23.57;10.40;;;9.00;54.30;;;;;;5024138;28;20198;-50
2022/11/27 07:41:59;;;;;;;18.77;10.20;;;8.60;54.70;;;;;;5020923;28;20197;-50
2022/11/27 07:44:24;;;;;;;22.90;8.40;;;8.50;55.50;;;;;;5031170;28;20676;-50
2022/11/27 07:46:50;;;;;;;14.73;8.47;;;7.80;57.00;;;;;;5039066;28;20967;-50
2022/11/27 07:49:15;;;;;;;10.40;8.27;;;7.60;58.10;;;;;;5044137;28;20196;-50
2022/11/27 07:51:41;;;;;;;8.13;7.27;;;7.50;58.60;;;;;;5044909;28;20247;-52
2022/11/27 07:54:07;;;;;;;8.43;7.63;;;7.40;59.10;;;;;;5030939;28;20244;-52
2022/11/27 07:56:32;;;;;;;8.73;7.83;;;7.40;59.30;;;;;;5030780;28;20221;-51
2022/11/27 07:58:58;;;;;;;9.50;7.40;;;7.50;59.20;;;;;;5028793;28;20233;-51
2022/11/27 08:01:23;;;;;;;9.47;8.37;;;7.60;58.80;;;;;;5038268;28;20195;-51
2022/11/27 08:03:49;;;;;;;10.10;8.73;;;7.60;58.80;;;;;;5032851;28;20193;-53
2022/11/27 08:06:16;;;;;;;11.97;8.27;;;7.30;59.20;;;;;;5030815;28;20255;-55
2022/11/27 08:08:42;;;;;;;12.80;9.50;;;7.20;59.90;;;;;;5026173;28;20243;-51
2022/11/27 08:11:25;;;;;;;10.90;8.80;;;7.10;59.70;;;;;;5040921;28;20440;-50
2022/11/27 08:13:58;;;;;;;12.13;10.33;;;7.10;60.40;;;;;;5025902;28;20455;-54
2022/11/27 08:16:24;;;;;;;13.40;11.80;;;7.20;60.40;;;;;;5034649;28;20455;-50
2022/11/27 08:18:50;;;;;;;12.10;10.50;;;7.10;60.60;;;;;;5021045;28;20444;-54
2022/11/27 08:21:15;;;;;;;12.90;11.17;;;7.00;60.70;;;;;;5026979;28;20211;-53
2022/11/27 08:23:41;;;;;;;13.27;10.60;;;7.00;61.50;;;;;;5028575;28;20281;-52
2022/11/27 08:26:08;;;;;;;14.30;10.00;;;7.10;61.40;;;;;;5019765;28;22014;-50
2022/11/27 08:28:34;;;;;;;12.60;11.27;;;7.30;61.40;;;;;;5023855;28;20193;-51
2022/11/27 08:31:02;;;;;;;16.03;12.00;;;7.30;61.50;;;;;;5019385;28;20846;-52
2022/11/27 08:33:28;;;;;;;12.93;11.43;;;7.30;61.60;;;;;;5019824;28;20525;-54
2022/11/27 08:35:53;;;;;;;14.23;11.23;;;7.00;62.50;;;;;;5029969;28;20805;-53
2022/11/27 08:38:20;;;;;;;22.47;15.63;;;6.70;63.80;;;;;;5030856;28;20456;-55
2022/11/27 08:40:54;;;;;;;17.43;13.60;;;6.70;65.70;;;;;;5030633;28;20197;-51
2022/11/27 08:43:19;;;;;;;15.90;11.10;;;6.90;65.90;;;;;;5032643;28;20440;-51
2022/11/27 08:45:45;;;;;;;14.43;11.63;;;7.20;65.80;;;;;;5027551;28;20502;-50
2022/11/27 08:48:10;;;;;;;15.90;11.63;;;7.20;66.30;;;;;;5029729;28;20189;-52
2022/11/27 08:50:36;;;;;;;17.60;12.87;;;7.10;67.20;;;;;;5022450;28;20200;-53
2022/11/27 08:53:02;;;;;;;15.17;12.40;;;7.20;67.70;;;;;;5045141;28;20189;-51
2022/11/27 08:55:29;;;;;;;15.40;12.20;;;7.40;67.80;;;;;;5026102;28;20499;-50
2022/11/27 08:57:54;;;;;;;12.30;10.90;;;7.60;67.30;;;;;;5039070;28;20455;-53
2022/11/27 09:00:20;;;;;;;15.07;12.43;;;7.80;67.50;;;;;;5039315;28;20557;-51
2022/11/27 09:02:46;;;;;;;15.00;12.87;;;8.00;67.50;;;;;;5026434;28;20185;-51
2022/11/27 09:05:11;;;;;;;14.50;12.07;;;8.20;67.20;;;;;;5020910;28;20304;-51
2022/11/27 09:07:37;;;;;;;15.90;12.73;;;8.40;66.70;;;;;;5022244;28;20197;-49
2022/11/27 09:10:03;;;;;;;14.00;12.50;;;8.40;66.20;;;;;;5026570;28;20225;-50
2022/11/27 09:12:29;;;;;;;18.23;11.53;;;8.40;66.70;;;;;;5026413;28;20239;-52
2022/11/27 09:14:54;;;;;;;14.13;11.93;;;8.30;68.30;;;;;;5021872;28;20440;-50
2022/11/27 09:17:20;;;;;;;18.30;12.90;;;8.20;68.20;;;;;;5026658;28;20637;-50
2022/11/27 09:19:46;;;;;;;13.50;11.70;;;8.40;69.60;;;;;;5023773;28;20198;-50
2022/11/27 09:22:11;;;;;;;16.07;12.20;;;8.90;69.60;;;;;;5022316;28;20247;-50
2022/11/27 09:24:37;;;;;;;16.20;14.50;;;9.10;68.10;;;;;;5034173;28;20223;-50
2022/11/27 09:27:02;;;;;;;14.13;11.00;;;9.60;67.30;;;;;;5027626;28;20280;-54
2022/11/27 09:29:28;;;;;;;17.70;12.13;;;9.90;66.20;;;;;;5011352;28;20925;-52
2022/11/27 09:31:54;;;;;;;12.70;11.40;;;10.30;63.90;;;;;;5031618;28;20197;-53
2022/11/27 09:34:19;;;;;;;12.77;11.43;;;10.60;62.20;;;;;;5027641;28;20193;-53
2022/11/27 09:36:45;;;;;;;11.50;10.27;;;10.80;61.00;;;;;;5027370;28;20299;-52
2022/11/27 09:39:12;;;;;;;11.77;10.53;;;11.10;59.90;;;;;;5022238;28;20223;-54
2022/11/27 09:41:43;;;;;;;11.00;9.67;;;11.60;59.40;;;;;;5029737;28;20197;-55
2022/11/27 09:44:47;;;;;;;11.13;10.03;;;11.80;58.60;;;;;;5023767;28;20451;-52
2022/11/27 09:47:18;;;;;;;13.50;10.40;;;12.10;59.00;;;;;;5024865;28;20513;-55
2022/11/27 09:49:55;;;;;;;12.57;10.10;;;12.10;57.50;;;;;;5026451;28;20448;-54
2022/11/27 09:52:55;;;;;;;9.67;8.77;;;11.80;57.50;;;;;;5022917;28;20483;-55
2022/11/27 09:55:40;;;;;;;10.97;8.50;;;12.00;58.10;;;;;;5014205;28;20514;-55
2022/11/27 09:58:10;;;;;;;8.63;7.73;;;12.40;56.70;;;;;;5032326;28;20450;-54
2022/11/27 10:00:36;;;;;;;9.07;8.17;;;12.70;55.20;;;;;;5042718;28;20945;-55
2022/11/27 10:03:01;;;;;;;9.50;7.63;;;13.00;55.30;;;;;;5030717;28;20444;-54
2022/11/27 10:06:01;;;;;;;7.70;6.30;;;13.20;54.60;;;;;;5041507;28;20228;-55
2022/11/27 10:08:48;;;;;;;9.60;7.87;;;13.20;54.80;;;;;;5000682;28;20216;-56
2022/11/27 10:11:29;;;;;;;8.03;7.30;;;13.50;54.80;;;;;;5012654;28;20972;-55
2022/11/27 10:14:19;;;;;;;7.50;6.60;;;13.60;54.10;;;;;;5041837;28;20447;-55
2022/11/27 10:16:53;;;;;;;7.77;6.07;;;13.70;53.00;;;;;;5037664;28;20455;-56
2022/11/27 10:19:31;;;;;;;6.23;5.37;;;13.60;53.50;;;;;;5039924;28;20461;-54
2022/11/27 10:22:17;;;;;;;4.70;4.20;;;13.70;53.30;;;;;;5030272;28;20453;-53
2022/11/27 10:24:47;;;;;;;4.80;3.77;;;13.80;53.90;;;;;;5038142;28;20508;-53
2022/11/27 10:27:20;;;;;;;3.20;2.90;;;14.10;53.40;;;;;;5029850;28;20782;-54
2022/11/27 10:29:54;;;;;;;5.07;3.60;;;14.20;52.30;;;;;;5019827;28;20935;-56
2022/11/27 10:32:28;;;;;;;5.60;4.17;;;13.80;51.10;;;;;;5040392;28;20452;-54
2022/11/27 10:35:13;;;;;;;3.87;3.47;;;13.60;52.20;;;;;;5053851;28;20423;-56
2022/11/27 10:37:47;;;;;;;5.23;4.77;;;13.50;52.70;;;;;;5033337;28;20949;-56
2022/11/27 10:40:13;;;;;;;7.17;4.37;;;13.60;52.90;;;;;;5041450;28;20485;-55
2022/11/27 10:43:20;;;;;;;5.23;3.80;;;13.50;52.90;;;;;;5054078;28;21214;-56
2022/11/27 10:45:56;;;;;;;4.37;3.83;;;13.70;52.50;;;;;;5026564;28;20327;-52
2022/11/27 10:48:22;;;;;;;6.30;3.70;;;13.60;51.70;;;;;;5045443;28;21021;-55
2022/11/27 10:50:48;;;;;;;3.90;3.27;;;13.70;51.40;;;;;;5041480;28;20455;-55
2022/11/27 10:53:36;;;;;;;5.27;3.33;;;14.00;51.50;;;;;;5036544;28;20479;-56
2022/11/27 10:56:10;;;;;;;2.90;2.70;;;14.30;50.00;;;;;;5039273;28;20480;-56
2022/11/27 10:59:04;;;;;;;4.80;3.30;;;14.70;49.90;;;;;;5045734;28;20858;-57
2022/11/27 11:02:02;;;;;;;5.83;3.23;;;14.70;48.60;;;;;;5032298;28;20550;-57
2022/11/27 11:04:29;;;;;;;4.53;2.60;;;14.70;48.80;;;;;;5019665;28;20489;-58
2022/11/27 11:06:56;;;;;;;3.27;2.90;;;14.70;48.50;;;;;;5053452;28;20430;-55
2022/11/27 11:09:30;;;;;;;3.57;3.00;;;14.80;48.70;;;;;;5022723;28;20451;-54
2022/11/27 11:12:07;;;;;;;3.03;2.73;;;15.10;48.20;;;;;;5029497;28;20461;-55
2022/11/27 11:14:33;;;;;;;3.20;2.90;;;15.40;48.30;;;;;;5029723;28;20455;-56
2022/11/27 11:16:58;;;;;;;3.83;2.97;;;15.40;47.80;;;;;;5031724;28;20522;-55
2022/11/27 11:19:24;;;;;;;4.60;4.20;;;15.40;47.70;;;;;;5029418;28;20193;-55
2022/11/27 11:21:50;;;;;;;2.97;2.67;;;15.50;48.10;;;;;;5030215;28;20196;-56
2022/11/27 11:24:34;;;;;;;3.80;2.40;;;15.60;47.80;;;;;;5032127;28;20272;-56
2022/11/27 11:27:05;;;;;;;3.40;2.77;;;15.60;47.50;;;;;;5028621;28;20473;-57
2022/11/27 11:29:35;;;;;;;4.33;3.20;;;15.30;47.50;;;;;;5026425;28;20442;-56
2022/11/27 11:32:13;;;;;;;2.77;2.43;;;15.50;47.50;;;;;;5031023;28;20448;-55
2022/11/27 11:34:42;;;;;;;3.37;2.80;;;15.60;46.90;;;;;;5042851;28;20529;-56
2022/11/27 11:37:16;;;;;;;3.20;2.90;;;15.80;46.80;;;;;;5025211;28;20455;-56
2022/11/27 11:39:47;;;;;;;3.20;2.90;;;15.90;46.10;;;;;;5036558;28;20440;-57
2022/11/27 11:42:21;;;;;;;2.47;2.27;;;15.70;45.70;;;;;;5038765;28;20526;-56
2022/11/27 11:44:53;;;;;;;3.67;2.73;;;15.60;46.00;;;;;;5020838;28;20487;-55
2022/11/27 11:47:22;;;;;;;3.10;2.63;;;15.30;47.00;;;;;;5030159;28;20873;-56
2022/11/27 11:49:49;;;;;;;3.43;2.53;;;15.30;46.80;;;;;;5029413;28;20451;-56
2022/11/27 11:52:26;;;;;;;2.60;2.40;;;15.30;46.40;;;;;;5029592;28;20862;-57
2022/11/27 11:55:01;;;;;;;3.50;2.03;;;15.50;46.30;;;;;;5035593;28;20589;-55
2022/11/27 11:58:01;;;;;;;2.83;2.00;;;15.50;45.70;;;;;;5043450;28;21006;-55
2022/11/27 12:00:38;;;;;;;2.87;2.57;;;15.50;45.40;;;;;;5030829;28;20470;-56
2022/11/27 12:03:23;;;;;;;2.57;2.33;;;15.50;45.60;;;;;;5027549;28;20454;-56
2022/11/27 12:06:10;;;;;;;4.10;3.07;;;15.70;45.70;;;;;;5024808;28;20511;-56
2022/11/27 12:09:16;;;;;;;2.80;2.30;;;16.20;44.80;;;;;;5024211;28;20484;-56
2022/11/27 12:11:45;;;;;;;3.00;2.27;;;15.90;44.60;;;;;;5028359;28;20455;-56
2022/11/27 12:14:41;;;;;;;3.30;2.80;;;16.00;45.20;;;;;;5031686;28;20467;-57
2022/11/27 12:17:29;;;;;;;4.63;2.90;;;16.30;44.20;;;;;;5029811;28;20440;-57
2022/11/27 12:20:16;;;;;;;3.57;2.40;;;16.10;43.60;;;;;;5029349;28;20959;-56
2022/11/27 12:22:59;;;;;;;7.03;2.40;;;16.10;43.80;;;;;;5029292;28;20448;-56
2022/11/27 12:25:31;;;;;;;2.33;2.13;;;16.10;43.60;;;;;;5027814;28;20486;-57
2022/11/27 12:28:08;;;;;;;3.27;2.90;;;16.20;43.70;;;;;;5034221;28;20448;-56
2022/11/27 12:30:43;;;;;;;3.20;2.47;;;16.00;43.60;;;;;;5033385;28;20475;-56
2022/11/27 12:33:15;;;;;;;5.40;3.13;;;16.20;44.00;;;;;;5024539;28;20934;-56
2022/11/27 12:35:58;;;;;;;3.50;3.10;;;16.10;43.60;;;;;;5035547;28;20443;-56
2022/11/27 12:38:46;;;;;;;4.77;2.83;;;16.20;43.30;;;;;;5028582;28;22167;-55
2022/11/27 12:41:38;;;;;;;3.43;3.03;;;16.50;43.10;;;;;;5024313;28;20868;-55
2022/11/27 12:44:16;;;;;;;3.27;2.60;;;16.30;42.50;;;;;;5017259;28;20456;-55
2022/11/27 12:47:14;;;;;;;3.07;2.23;;;16.50;42.70;;;;;;5026344;28;20466;-56
2022/11/27 12:49:45;;;;;;;3.50;2.37;;;16.50;42.40;;;;;;5031765;28;20546;-55
2022/11/27 12:52:22;;;;;;;3.23;2.37;;;16.30;42.20;;;;;;5029493;28;20439;-56
2022/11/27 12:55:11;;;;;;;4.27;2.53;;;16.40;42.40;;;;;;5032450;28;20468;-56
2022/11/27 12:57:45;;;;;;;2.60;2.37;;;16.70;42.10;;;;;;5029979;28;20810;-56
2022/11/27 13:00:18;;;;;;;3.43;3.13;;;16.70;41.20;;;;;;5021062;28;20850;-56